Time;durP1;ratioP1;P1;durP2;ratioP2;P2;SDS_P1;SDS_P2;PMS_P1;PMS_P2;Temp;Humidity;BMP_temperature;BMP_pressure;BME280_temperature;BME280_humidity;BME280_pressure;Samples;Min_cycle;Max_cycle;Signal;HPM_P1;HPM_P2
2022/08/29 00:01:02;;;;;;;5.10;2.17;;;;;;;18.73;nan;100731.84;5037060;28;20548;-66
2022/08/29 00:03:27;;;;;;;6.57;2.17;;;;;;;18.73;nan;100735.34;5033178;28;20505;-66
2022/08/29 00:05:53;;;;;;;5.78;2.10;;;;;;;18.71;nan;100732.09;5035461;28;20033;-66
2022/08/29 00:08:19;;;;;;;6.05;2.03;;;;;;;18.67;nan;100731.63;5030327;28;20053;-66
2022/08/29 00:10:44;;;;;;;6.35;2.20;;;;;;;18.68;nan;100727.09;5033107;28;20029;-65
2022/08/29 00:13:11;;;;;;;4.80;1.98;;;;;;;18.68;nan;100725.25;5032367;28;20697;-66
2022/08/29 00:15:39;;;;;;;5.65;2.22;;;;;;;18.64;nan;100731.22;5032719;28;20436;-66
2022/08/29 00:18:04;;;;;;;5.30;2.40;;;;;;;18.59;nan;100729.16;5036350;28;20037;-66
2022/08/29 00:20:31;;;;;;;6.72;1.90;;;;;;;18.48;nan;100737.75;5033879;28;20041;-66
2022/08/29 00:22:57;;;;;;;4.55;2.05;;;;;;;18.39;nan;100737.06;5030295;28;20041;-66
2022/08/29 00:25:23;;;;;;;5.93;2.20;;;;;;;18.38;nan;100731.94;5031831;28;20444;-66
2022/08/29 00:27:49;;;;;;;4.20;2.08;;;;;;;18.36;nan;100729.44;5033346;28;20083;-66
2022/08/29 00:30:15;;;;;;;6.63;2.28;;;;;;;18.33;nan;100732.53;5024664;28;20033;-66
2022/08/29 00:32:40;;;;;;;4.90;2.22;;;;;;;18.34;nan;100738.69;5028912;28;20124;-66
2022/08/29 00:35:09;;;;;;;5.03;1.90;;;;;;;18.29;nan;100735.78;5031509;28;20041;-66
2022/08/29 00:37:35;;;;;;;5.65;1.70;;;;;;;18.25;nan;100732.66;5033806;28;20049;-66
2022/08/29 00:40:03;;;;;;;8.15;2.35;;;;;;;18.26;nan;100734.34;5027292;28;20044;-66
2022/08/29 00:42:28;;;;;;;3.90;2.00;;;;;;;18.23;nan;100734.72;5029559;28;20045;-66
2022/08/29 00:44:53;;;;;;;4.93;1.90;;;;;;;18.15;nan;100733.03;5033627;28;20482;-65
2022/08/29 00:47:25;;;;;;;3.40;1.80;;;;;;;18.10;nan;100731.97;5032636;28;20056;-65
2022/08/29 00:49:54;;;;;;;4.13;1.60;;;;;;;18.05;nan;100735.22;5025714;28;20045;-65
2022/08/29 00:52:40;;;;;;;4.05;1.60;;;;;;;18.00;nan;100738.50;5031086;28;20410;-65
2022/08/29 00:55:11;;;;;;;4.80;1.80;;;;;;;18.00;nan;100749.19;5035477;28;20040;-65
2022/08/29 00:57:39;;;;;;;3.43;1.80;;;;;;;18.00;nan;100754.53;5029559;28;20097;-65
2022/08/29 01:00:06;;;;;;;3.72;1.80;;;;;;;17.97;nan;100754.94;5032157;28;20037;-66
2022/08/29 01:02:31;;;;;;;4.47;1.83;;;;;;;17.92;nan;100746.66;5035963;28;20122;-65
2022/08/29 01:04:59;;;;;;;3.78;1.75;;;;;;;17.87;nan;100749.06;5032124;28;20059;-66
2022/08/29 01:07:24;;;;;;;6.03;1.95;;;;;;;17.86;nan;100749.28;5041241;28;20049;-66
2022/08/29 01:09:51;;;;;;;5.55;1.95;;;;;;;17.87;nan;100751.75;5030560;28;20084;-66
2022/08/29 01:12:18;;;;;;;4.40;1.90;;;;;;;17.85;nan;100744.94;5032569;28;20589;-66
2022/08/29 01:14:51;;;;;;;4.35;1.80;;;;;;;17.74;nan;100751.63;5034071;28;20115;-66
2022/08/29 01:17:21;;;;;;;4.70;1.88;;;;;;;17.75;nan;100751.44;5035128;28;20061;-66
2022/08/29 01:20:10;;;;;;;5.72;2.08;;;;;;;17.77;nan;100749.38;5037713;28;20041;-65
2022/08/29 01:22:55;;;;;;;4.38;1.90;;;;;;;17.74;nan;100749.78;5047090;28;20636;-66
2022/08/29 01:25:25;;;;;;;4.28;1.80;;;;;;;17.70;nan;100751.19;5033722;28;20124;-65
2022/08/29 01:28:02;;;;;;;3.72;1.92;;;;;;;17.62;nan;100749.47;5029757;28;20033;-65
2022/08/29 01:30:28;;;;;;;5.30;2.40;;;;;;;17.61;nan;100755.00;5022230;28;20516;-66
2022/08/29 01:32:56;;;;;;;3.50;1.70;;;;;;;17.59;nan;100751.69;5030649;28;20033;-66
2022/08/29 01:35:22;;;;;;;4.22;1.90;;;;;;;17.52;nan;100756.16;5033600;28;20037;-66
2022/08/29 01:37:47;;;;;;;3.90;1.63;;;;;;;17.39;nan;100752.34;5031416;28;20272;-66
2022/08/29 01:40:13;;;;;;;4.97;1.80;;;;;;;17.31;nan;100754.34;5033202;28;20034;-66
2022/08/29 01:42:38;;;;;;;2.50;1.42;;;;;;;17.20;nan;100756.47;5028619;28;20272;-65
2022/08/29 01:45:05;;;;;;;3.03;1.40;;;;;;;17.10;nan;100757.81;5031401;28;20033;-66
2022/08/29 01:47:34;;;;;;;4.82;1.80;;;;;;;17.01;nan;100759.75;5032338;28;20033;-65
2022/08/29 01:50:01;;;;;;;3.80;1.73;;;;;;;16.93;nan;100762.56;5029691;28;20060;-66
2022/08/29 01:52:27;;;;;;;2.85;1.40;;;;;;;16.86;nan;100767.00;5027983;28;20497;-66
2022/08/29 01:54:52;;;;;;;2.60;1.40;;;;;;;16.81;nan;100769.41;5030161;28;20038;-66
2022/08/29 01:57:18;;;;;;;3.75;1.70;;;;;;;16.76;nan;100772.59;5037261;28;20180;-66
2022/08/29 01:59:44;;;;;;;3.38;1.70;;;;;;;16.70;nan;100768.81;5025475;28;20040;-66
2022/08/29 02:02:15;;;;;;;4.05;1.80;;;;;;;16.63;nan;100770.56;5028013;28;20445;-66
2022/08/29 02:04:40;;;;;;;3.80;1.77;;;;;;;16.58;nan;100769.47;5029721;28;20041;-65
2022/08/29 02:07:06;;;;;;;4.85;1.90;;;;;;;16.51;nan;100774.72;5030092;28;20037;-65
2022/08/29 02:09:31;;;;;;;3.78;1.70;;;;;;;16.45;nan;100773.63;5032578;28;20030;-66
2022/08/29 02:11:57;;;;;;;4.00;1.88;;;;;;;16.39;nan;100778.84;5027555;28;20034;-65
2022/08/29 02:14:22;;;;;;;4.53;1.90;;;;;;;16.32;nan;100781.44;5025486;28;20056;-65
2022/08/29 02:16:48;;;;;;;4.72;1.90;;;;;;;16.26;nan;100782.19;5027766;28;20029;-65
2022/08/29 02:19:14;;;;;;;5.32;1.60;;;;;;;16.18;nan;100780.41;5038784;28;20046;-66
2022/08/29 02:21:39;;;;;;;3.65;1.70;;;;;;;16.10;nan;100783.97;5034476;28;20044;-65
2022/08/29 02:24:05;;;;;;;4.40;1.85;;;;;;;16.06;nan;100784.53;5027281;28;20034;-65
2022/08/29 02:26:31;;;;;;;2.55;1.60;;;;;;;16.05;nan;100785.53;5034684;28;20060;-65
2022/08/29 02:28:56;;;;;;;3.20;1.70;;;;;;;16.01;nan;100793.06;5035554;28;20037;-65
2022/08/29 02:31:23;;;;;;;2.85;1.25;;;;;;;15.97;nan;100793.59;5037888;28;20379;-66
2022/08/29 02:33:50;;;;;;;4.05;1.90;;;;;;;15.91;nan;100788.00;5036756;28;20033;-65
2022/08/29 02:36:16;;;;;;;2.88;1.45;;;;;;;15.89;nan;100789.19;5041120;28;20041;-65
2022/08/29 02:38:42;;;;;;;2.83;1.52;;;;;;;15.83;nan;100790.75;5039281;28;20037;-66
2022/08/29 02:41:07;;;;;;;3.15;1.50;;;;;;;15.80;nan;100788.44;5035578;28;20564;-65
2022/08/29 02:43:32;;;;;;;2.78;1.30;;;;;;;15.74;nan;100785.66;5039331;28;20056;-66
2022/08/29 02:45:58;;;;;;;3.88;1.73;;;;;;;15.65;nan;100790.19;5043722;28;20043;-65
2022/08/29 02:48:25;;;;;;;2.03;1.13;;;;;;;15.70;nan;100787.84;5039867;28;20497;-66
2022/08/29 02:50:52;;;;;;;3.03;1.55;;;;;;;15.59;nan;100790.88;5035425;28;20553;-66
2022/08/29 02:53:21;;;;;;;2.35;1.42;;;;;;;15.50;nan;100780.28;5032358;28;20038;-65
2022/08/29 02:55:47;;;;;;;3.20;1.40;;;;;;;15.44;nan;100781.00;5035566;28;20033;-66
2022/08/29 02:58:13;;;;;;;2.58;1.40;;;;;;;15.39;nan;100786.03;5032119;28;20034;-65
2022/08/29 03:00:39;;;;;;;3.95;1.77;;;;;;;15.34;nan;100788.41;5036306;28;20037;-65
2022/08/29 03:03:04;;;;;;;3.20;1.50;;;;;;;15.31;nan;100791.41;5034231;28;20395;-66
2022/08/29 03:05:33;;;;;;;2.47;1.30;;;;;;;15.27;nan;100800.75;5038803;28;20056;-65
2022/08/29 03:08:00;;;;;;;5.65;1.88;;;;;;;15.19;nan;100792.84;5042560;28;20115;-66
2022/08/29 03:10:26;;;;;;;3.13;1.70;;;;;;;15.14;nan;100790.69;5045417;28;20060;-65
2022/08/29 03:12:51;;;;;;;3.53;1.65;;;;;;;15.10;nan;100791.22;5033758;28;20438;-65
2022/08/29 03:15:17;;;;;;;3.47;1.52;;;;;;;15.03;nan;100791.91;5031380;28;20529;-66
2022/08/29 03:17:42;;;;;;;3.83;1.70;;;;;;;14.97;nan;100792.63;5031269;28;20091;-66
2022/08/29 03:20:10;;;;;;;3.03;1.48;;;;;;;14.94;nan;100798.28;5032046;28;20405;-66
2022/08/29 03:22:36;;;;;;;4.40;1.95;;;;;;;14.88;nan;100792.84;5037998;28;20388;-66
2022/08/29 03:25:03;;;;;;;3.05;1.50;;;;;;;14.82;nan;100791.66;5033908;28;20033;-65
2022/08/29 03:27:30;;;;;;;4.15;1.40;;;;;;;14.79;nan;100790.19;5041446;28;20030;-65
2022/08/29 03:29:55;;;;;;;3.65;1.70;;;;;;;14.82;nan;100789.00;5032151;28;20041;-65
2022/08/29 03:32:21;;;;;;;3.58;1.65;;;;;;;14.78;nan;100783.22;5030805;28;20033;-65
2022/08/29 03:34:46;;;;;;;4.32;1.83;;;;;;;14.75;nan;100785.38;5029577;28;20029;-65
2022/08/29 03:37:12;;;;;;;2.50;1.42;;;;;;;14.70;nan;100785.06;5039081;28;20397;-65
2022/08/29 03:39:37;;;;;;;2.85;1.48;;;;;;;14.65;nan;100789.06;5037715;28;20505;-65
2022/08/29 03:42:05;;;;;;;2.30;1.20;;;;;;;14.60;nan;100783.44;5029011;28;20171;-66
2022/08/29 03:44:35;;;;;;;3.15;1.45;;;;;;;14.55;nan;100787.63;5030136;28;20029;-66
2022/08/29 03:47:02;;;;;;;3.20;1.58;;;;;;;14.49;nan;100789.13;5029543;28;20045;-66
2022/08/29 03:49:27;;;;;;;2.63;1.40;;;;;;;14.43;nan;100790.59;5040268;28;20052;-65
2022/08/29 03:51:53;;;;;;;3.70;1.48;;;;;;;14.41;nan;100789.13;5037087;28;20112;-66
2022/08/29 03:54:19;;;;;;;2.88;1.48;;;;;;;14.38;nan;100792.13;5031689;28;20037;-65
2022/08/29 03:56:45;;;;;;;2.35;1.52;;;;;;;14.36;nan;100788.81;5040840;28;20652;-65
2022/08/29 03:59:10;;;;;;;2.80;1.58;;;;;;;14.33;nan;100795.31;5037219;28;20064;-66
2022/08/29 04:01:36;;;;;;;3.58;1.70;;;;;;;14.27;nan;100784.50;5037252;28;20025;-65
2022/08/29 04:04:01;;;;;;;3.88;1.80;;;;;;;14.23;nan;100789.34;5040536;28;20037;-65
2022/08/29 04:06:29;;;;;;;4.30;2.03;;;;;;;14.19;nan;100788.00;5039571;28;20310;-66
2022/08/29 04:08:55;;;;;;;4.05;1.95;;;;;;;14.16;nan;100789.19;5032641;28;20493;-66
2022/08/29 04:11:25;;;;;;;3.53;1.90;;;;;;;14.16;nan;100789.19;5029261;28;20045;-65
2022/08/29 04:13:52;;;;;;;3.47;1.63;;;;;;;14.16;nan;100785.69;5034617;28;20430;-65
2022/08/29 04:16:21;;;;;;;2.63;1.50;;;;;;;14.17;nan;100780.19;5034752;28;20033;-65
2022/08/29 04:18:47;;;;;;;3.03;1.60;;;;;;;14.19;nan;100777.38;5041134;28;20036;-65
2022/08/29 04:21:13;;;;;;;3.65;2.00;;;;;;;14.18;nan;100781.88;5035493;28;20056;-65
2022/08/29 04:23:39;;;;;;;3.30;1.52;;;;;;;14.19;nan;100785.34;5032984;28;20453;-65
2022/08/29 04:26:11;;;;;;;3.50;1.60;;;;;;;14.19;nan;100782.69;5027205;28;20114;-66
2022/08/29 04:28:36;;;;;;;3.72;1.55;;;;;;;14.16;nan;100778.53;5032211;28;20518;-65
2022/08/29 04:31:01;;;;;;;3.63;1.63;;;;;;;14.16;nan;100786.53;5026443;28;20079;-65
2022/08/29 04:33:27;;;;;;;3.15;1.63;;;;;;;14.14;nan;100791.19;5035007;28;20037;-65
2022/08/29 04:35:52;;;;;;;3.53;1.50;;;;;;;14.12;nan;100787.84;5033362;28;20037;-65
2022/08/29 04:38:18;;;;;;;4.45;1.80;;;;;;;14.12;nan;100793.16;5041289;28;20754;-66
2022/08/29 04:40:44;;;;;;;3.08;1.45;;;;;;;14.08;nan;100797.16;5038311;28;20030;-66
2022/08/29 04:43:11;;;;;;;3.90;1.90;;;;;;;14.07;nan;100798.16;5023764;28;20040;-66
2022/08/29 04:45:39;;;;;;;3.55;1.55;;;;;;;14.08;nan;100794.50;5030452;28;20041;-66
2022/08/29 04:48:06;;;;;;;3.88;2.05;;;;;;;14.09;nan;100798.00;5036466;28;20045;-66
2022/08/29 04:50:31;;;;;;;3.40;1.80;;;;;;;14.08;nan;100802.47;5031834;28;20047;-65
2022/08/29 04:52:57;;;;;;;4.45;1.50;;;;;;;14.09;nan;100806.00;5036568;28;20416;-66
2022/08/29 04:55:23;;;;;;;3.15;1.63;;;;;;;14.11;nan;100803.97;5031836;28;20041;-66
2022/08/29 04:57:50;;;;;;;3.55;1.75;;;;;;;14.11;nan;100802.16;5022752;28;20048;-65
2022/08/29 05:00:22;;;;;;;3.33;1.60;;;;;;;14.14;nan;100806.31;5033690;28;20038;-65
2022/08/29 05:02:47;;;;;;;;;;;;;;;14.16;nan;100804.31;5036643;28;20405;-65
2022/08/29 05:05:14;;;;;;;3.33;1.70;;;;;;;14.17;nan;100808.63;5033329;28;19925;-65
2022/08/29 05:07:41;;;;;;;4.50;1.58;;;;;;;14.21;nan;100808.13;5028601;28;20034;-65
2022/08/29 05:10:11;;;;;;;3.88;1.92;;;;;;;14.27;nan;100811.91;5024350;28;20061;-66
2022/08/29 05:12:36;;;;;;;3.40;1.67;;;;;;;14.35;nan;100819.06;5031182;28;20091;-66
2022/08/29 05:15:04;;;;;;;3.70;1.80;;;;;;;14.43;nan;100819.06;5038199;28;20041;-66
2022/08/29 05:17:29;;;;;;;4.95;2.13;;;;;;;14.49;nan;100823.72;5036316;28;20040;-66
2022/08/29 05:19:54;;;;;;;4.20;1.90;;;;;;;14.55;nan;100828.38;5029879;28;20321;-66
2022/08/29 05:22:20;;;;;;;3.30;1.73;;;;;;;14.65;nan;100823.66;5035110;28;20033;-66
2022/08/29 05:24:46;;;;;;;3.33;1.63;;;;;;;14.78;nan;100820.50;5033884;28;20037;-65
2022/08/29 05:27:16;;;;;;;3.08;1.70;;;;;;;14.87;nan;100821.25;5032279;28;20092;-66
2022/08/29 05:29:43;;;;;;;3.97;2.10;;;;;;;14.94;nan;100814.25;5033405;28;20060;-66
2022/08/29 05:32:10;;;;;;;4.35;2.05;;;;;;;15.07;nan;100817.19;5036875;28;20438;-66
2022/08/29 05:34:37;;;;;;;4.05;1.88;;;;;;;15.37;nan;100820.00;5029530;28;20045;-66
2022/08/29 05:37:07;;;;;;;2.83;1.63;;;;;;;15.72;nan;100825.81;5022239;28;20026;-66
2022/08/29 05:39:34;;;;;;;3.13;1.65;;;;;;;16.06;nan;100829.88;5029647;28;20037;-66
2022/08/29 05:41:59;;;;;;;3.38;1.50;;;;;;;16.33;nan;100836.47;5025451;28;20052;-66
2022/08/29 05:44:26;;;;;;;3.00;1.80;;;;;;;16.47;nan;100832.13;5035409;28;20179;-66
2022/08/29 05:46:52;;;;;;;2.85;1.63;;;;;;;16.51;nan;100833.44;5035173;28;20391;-66
2022/08/29 05:49:17;;;;;;;4.35;1.98;;;;;;;16.58;nan;100838.88;5016406;28;20041;-66
2022/08/29 05:51:43;;;;;;;4.82;2.00;;;;;;;16.64;nan;100838.16;5036344;28;20037;-66
2022/08/29 05:54:08;;;;;;;4.25;1.77;;;;;;;16.72;nan;100835.38;5029741;28;20641;-66
2022/08/29 05:56:34;;;;;;;3.05;1.50;;;;;;;16.82;nan;100835.13;5040200;28;20098;-66
2022/08/29 05:58:59;;;;;;;3.20;1.45;;;;;;;16.92;nan;100831.19;5033492;28;20034;-66
2022/08/29 06:01:28;;;;;;;3.10;1.70;;;;;;;17.08;nan;100827.47;5039585;28;20037;-66
2022/08/29 06:03:54;;;;;;;2.80;1.23;;;;;;;17.55;nan;100823.47;5027158;28;20137;-66
2022/08/29 06:06:22;;;;;;;3.67;1.50;;;;;;;18.16;nan;100836.41;5032751;28;20045;-66
2022/08/29 06:08:48;;;;;;;2.53;1.33;;;;;;;18.89;nan;100842.22;5030023;28;20136;-66
2022/08/29 06:11:18;;;;;;;;;;;;;;;19.53;nan;100832.97;5034567;28;20295;-66
2022/08/29 06:13:43;;;;;;;4.65;1.25;;;;;;;20.17;nan;100829.97;5041514;28;19924;-66
2022/08/29 06:16:14;;;;;;;3.00;1.48;;;;;;;20.77;nan;100834.19;5037033;28;20045;-66
2022/08/29 06:18:40;;;;;;;;;;;;;;;21.17;nan;100828.66;5033168;28;20053;-66
2022/08/29 06:21:06;;;;;;;3.58;1.63;;;;;;;21.49;nan;100833.28;5029922;28;20403;-67
2022/08/29 06:23:32;;;;;;;3.40;1.88;;;;;;;21.88;nan;100842.97;5038777;28;20037;-65
2022/08/29 06:25:58;;;;;;;3.75;1.25;;;;;;;22.36;nan;100837.00;5031881;28;20029;-65
2022/08/29 06:28:29;;;;;;;3.25;1.42;;;;;;;22.52;nan;100851.75;5041048;28;20094;-65
2022/08/29 06:30:54;;;;;;;3.20;1.42;;;;;;;22.84;nan;100838.16;5046737;28;20025;-65
2022/08/29 06:33:20;;;;;;;3.27;1.33;;;;;;;23.03;nan;100839.00;5037713;28;20133;-65
2022/08/29 06:35:45;;;;;;;2.78;1.63;;;;;;;23.20;nan;100847.28;5033097;28;20809;-65
2022/08/29 06:38:10;;;;;;;1.87;1.17;;;;;;;23.53;nan;100847.66;5026884;28;20469;-65
2022/08/29 06:40:35;;;;;;;;;;;;;;;23.63;nan;100843.56;5025426;28;20498;-65
2022/08/29 06:43:00;;;;;;;;;;;;;;;23.57;nan;100849.88;5029955;28;20003;-66
2022/08/29 06:45:26;;;;;;;;;;;;;;;23.65;nan;100844.16;5030559;28;19924;-66
2022/08/29 06:47:51;;;;;;;4.07;1.53;;;;;;;23.72;nan;100848.41;5031072;28;19956;-66
2022/08/29 06:50:17;;;;;;;2.45;1.15;;;;;;;24.00;nan;100860.44;5036649;28;20415;-65
2022/08/29 06:52:42;;;;;;;2.72;1.27;;;;;;;24.07;nan;100855.75;5029083;28;20064;-65
2022/08/29 06:55:11;;;;;;;2.37;1.23;;;;;;;24.34;nan;100850.75;5033771;28;20401;-65
2022/08/29 06:57:44;;;;;;;1.63;1.00;;;;;;;24.67;nan;100854.75;5027851;28;20501;-65
2022/08/29 07:00:11;;;;;;;;;;;;;;;24.82;nan;100850.72;5030285;28;20040;-65
2022/08/29 07:02:37;;;;;;;3.03;1.20;;;;;;;25.19;nan;100854.78;5031992;28;19963;-66
2022/08/29 07:05:02;;;;;;;;;;;;;;;25.53;nan;100862.13;5031570;28;20026;-66
2022/08/29 07:07:28;;;;;;;3.73;1.50;;;;;;;25.72;nan;100854.63;5031358;28;20378;-66
2022/08/29 07:09:53;;;;;;;3.70;1.70;;;;;;;25.95;nan;100856.41;5031164;28;20523;-65
2022/08/29 07:12:18;;;;;;;3.97;2.00;;;;;;;26.22;nan;100859.28;5033194;28;20046;-66
2022/08/29 07:14:43;;;;;;;5.47;2.00;;;;;;;26.35;nan;100858.94;5029837;28;20324;-66
2022/08/29 07:17:10;;;;;;;3.33;1.53;;;;;;;26.77;nan;100858.47;5030542;28;20366;-66
2022/08/29 07:19:35;;;;;;;3.50;1.67;;;;;;;27.04;nan;100858.50;5033242;28;20723;-66
2022/08/29 07:22:01;;;;;;;2.75;1.52;;;;;;;27.16;nan;100861.09;5029445;28;20064;-66
2022/08/29 07:24:26;;;;;;;4.30;1.90;;;;;;;27.27;nan;100862.91;5041675;28;20041;-66
2022/08/29 07:26:51;;;;;;;4.85;1.90;;;;;;;27.26;nan;100865.84;5038600;28;20041;-66
2022/08/29 07:29:19;;;;;;;4.82;1.83;;;;;;;27.60;nan;100866.50;5023169;28;20029;-66
2022/08/29 07:31:46;;;;;;;3.33;1.40;;;;;;;27.95;nan;100865.19;5034853;28;20040;-66
2022/08/29 07:34:11;;;;;;;3.75;1.50;;;;;;;28.19;nan;100865.63;5040357;28;20456;-67
2022/08/29 07:36:37;;;;;;;4.63;2.10;;;;;;;28.17;nan;100868.63;5042604;28;20083;-66
2022/08/29 07:39:09;;;;;;;2.95;1.45;;;;;;;28.20;nan;100864.56;5034321;28;20451;-66
2022/08/29 07:41:37;;;;;;;3.45;1.40;;;;;;;28.50;nan;100860.44;5024053;28;20052;-66
2022/08/29 07:44:04;;;;;;;3.72;1.67;;;;;;;28.80;nan;100855.16;5029656;28;20405;-66
2022/08/29 07:46:30;;;;;;;4.78;1.42;;;;;;;28.70;nan;100856.97;5028252;28;20047;-66
2022/08/29 07:48:57;;;;;;;4.20;1.80;;;;;;;28.50;nan;100863.16;5044182;28;20039;-66
2022/08/29 07:51:22;;;;;;;4.60;1.52;;;;;;;28.55;nan;100863.16;5043818;28;20098;-66
2022/08/29 07:53:49;;;;;;;3.03;1.50;;;;;;;28.66;nan;100864.06;5041444;28;20317;-66
2022/08/29 07:56:18;;;;;;;3.75;1.60;;;;;;;28.65;nan;100871.41;5034505;28;20108;-67
2022/08/29 07:58:44;;;;;;;3.15;1.60;;;;;;;28.60;nan;100871.34;5036014;28;20486;-65
2022/08/29 08:01:09;;;;;;;5.65;1.60;;;;;;;28.54;nan;100872.44;5029549;28;20036;-66
2022/08/29 08:03:35;;;;;;;3.38;1.52;;;;;;;28.68;nan;100873.59;5035179;28;20084;-66
2022/08/29 08:06:01;;;;;;;5.07;1.70;;;;;;;28.76;nan;100864.09;5025949;28;20110;-66
2022/08/29 08:08:27;;;;;;;4.75;1.50;;;;;;;28.90;nan;100869.88;5027844;28;20384;-66
2022/08/29 08:10:52;;;;;;;2.88;1.48;;;;;;;29.08;nan;100865.88;5026801;28;20037;-66
2022/08/29 08:13:18;;;;;;;3.08;1.65;;;;;;;29.09;nan;100875.72;5028736;28;20033;-66
2022/08/29 08:15:44;;;;;;;4.22;1.75;;;;;;;28.99;nan;100869.09;5027140;28;20486;-66
2022/08/29 08:18:09;;;;;;;3.28;1.50;;;;;;;28.97;nan;100873.19;5032132;28;20056;-66
2022/08/29 08:20:35;;;;;;;3.45;1.80;;;;;;;29.08;nan;100868.59;5033995;28;20034;-66
2022/08/29 08:23:00;;;;;;;3.53;1.90;;;;;;;29.37;nan;100880.69;5027678;28;20041;-66
2022/08/29 08:25:26;;;;;;;5.18;1.95;;;;;;;29.44;nan;100872.28;5027464;28;20037;-66
2022/08/29 08:27:52;;;;;;;3.28;1.55;;;;;;;29.18;nan;100865.94;5030825;28;20080;-65
2022/08/29 08:30:19;;;;;;;3.22;1.30;;;;;;;29.33;nan;100870.59;5031356;28;20346;-65
2022/08/29 08:32:45;;;;;;;3.72;2.05;;;;;;;29.63;nan;100870.66;5030657;28;20140;-65
2022/08/29 08:35:11;;;;;;;3.00;1.70;;;;;;;30.13;nan;100867.41;5031834;28;20128;-65
2022/08/29 08:37:37;;;;;;;3.38;1.60;;;;;;;30.73;nan;100868.41;5027223;28;20033;-65
2022/08/29 08:40:02;;;;;;;3.33;1.45;;;;;;;31.10;nan;100869.91;5029696;28;20033;-65
2022/08/29 08:42:41;;;;;;;2.80;1.40;;;;;;;31.15;nan;100871.78;5031104;28;20052;-65
2022/08/29 08:45:11;;;;;;;3.65;1.73;;;;;;;31.28;nan;100865.72;5035392;28;20037;-65
2022/08/29 08:47:50;;;;;;;3.40;1.80;;;;;;;31.27;nan;100869.53;5028280;28;20030;-65
2022/08/29 08:50:24;;;;;;;3.90;2.00;;;;;;;31.08;nan;100864.75;5032102;28;20037;-65
2022/08/29 08:52:58;;;;;;;3.45;1.90;;;;;;;31.00;nan;100868.03;5020332;28;20124;-67
2022/08/29 08:55:41;;;;;;;3.08;1.58;;;;;;;30.83;nan;100867.56;5024778;28;20182;-65
2022/08/29 08:58:29;;;;;;;3.42;1.67;;;;;;;30.89;nan;100858.25;5025158;28;20037;-67
2022/08/29 09:01:19;;;;;;;3.45;1.70;;;;;;;31.46;nan;100864.25;5036260;28;20509;-65
2022/08/29 09:03:56;;;;;;;5.40;1.70;;;;;;;31.94;nan;100862.53;5026827;28;20068;-65
2022/08/29 09:06:43;;;;;;;3.05;1.52;;;;;;;32.33;nan;100869.03;5029207;28;20037;-66
2022/08/29 09:09:33;;;;;;;3.20;1.50;;;;;;;32.16;nan;100862.09;5029710;28;20430;-65
2022/08/29 09:12:26;;;;;;;4.10;1.88;;;;;;;31.81;nan;100868.66;5033245;28;20061;-65
2022/08/29 09:15:15;;;;;;;4.32;2.08;;;;;;;31.61;nan;100866.91;5026181;28;20418;-66
2022/08/29 09:17:49;;;;;;;4.97;1.98;;;;;;;31.92;nan;100866.66;5022649;28;20039;-65
2022/08/29 09:20:21;;;;;;;3.83;1.88;;;;;;;32.03;nan;100876.41;5027036;28;20053;-65
2022/08/29 09:23:24;;;;;;;3.58;1.60;;;;;;;31.64;nan;100873.72;5027389;28;20122;-66
2022/08/29 09:25:50;;;;;;;4.15;1.63;;;;;;;31.65;nan;100872.59;5025624;28;20124;-65
2022/08/29 09:28:15;;;;;;;4.50;1.80;;;;;;;31.72;nan;100879.38;5026756;28;20124;-65
2022/08/29 09:30:43;;;;;;;3.50;1.73;;;;;;;32.29;nan;100882.47;5026479;28;20033;-66
2022/08/29 09:33:14;;;;;;;2.70;1.60;;;;;;;32.61;nan;100877.50;5031430;28;20061;-65
2022/08/29 09:35:49;;;;;;;3.92;1.75;;;;;;;32.53;nan;100874.31;5032504;28;20041;-66
2022/08/29 09:38:17;;;;;;;3.63;1.75;;;;;;;32.62;nan;100873.69;5029309;28;20091;-65
2022/08/29 09:40:45;;;;;;;3.97;1.63;;;;;;;32.91;nan;100877.16;5030462;28;20041;-65
2022/08/29 09:43:18;;;;;;;3.28;1.80;;;;;;;33.30;nan;100864.31;5038050;28;20072;-66
2022/08/29 09:46:01;;;;;;;2.40;1.50;;;;;;;33.54;nan;100872.50;5033692;28;20096;-65
2022/08/29 09:48:27;;;;;;;3.20;1.85;;;;;;;34.18;nan;100875.56;5034598;28;20222;-65
2022/08/29 09:51:08;;;;;;;4.97;1.90;;;;;;;33.75;nan;100873.81;5037047;28;20233;-65
2022/08/29 09:53:34;;;;;;;3.75;1.90;;;;;;;33.85;nan;100872.84;5030348;28;20040;-66
2022/08/29 09:56:08;;;;;;;3.67;1.77;;;;;;;34.55;nan;100871.84;5033281;28;20034;-65
2022/08/29 09:58:38;;;;;;;2.58;1.58;;;;;;;34.92;nan;100871.97;5030303;28;20038;-65
2022/08/29 10:01:08;;;;;;;4.18;1.90;;;;;;;34.28;nan;100858.09;5033708;28;20061;-65
2022/08/29 10:03:41;;;;;;;4.10;1.85;;;;;;;33.63;nan;100860.56;5031917;28;20083;-65
2022/08/29 10:06:14;;;;;;;4.55;2.30;;;;;;;34.30;nan;100862.19;5032886;28;20121;-66
2022/08/29 10:08:53;;;;;;;4.20;2.03;;;;;;;34.86;nan;100863.03;5024146;28;20045;-65
2022/08/29 10:11:24;;;;;;;4.43;1.60;;;;;;;35.16;nan;100858.00;5034663;28;20037;-68
2022/08/29 10:13:54;;;;;;;6.10;2.05;;;;;;;36.03;nan;100858.66;5031009;28;20045;-65
2022/08/29 10:16:25;;;;;;;4.20;1.80;;;;;;;36.68;nan;100858.00;5030762;28;20056;-65
2022/08/29 10:19:21;;;;;;;3.70;1.70;;;;;;;37.17;nan;100866.25;5035643;28;20057;-65
2022/08/29 10:21:55;;;;;;;4.78;1.90;;;;;;;36.85;nan;100860.00;5031621;28;20061;-65
2022/08/29 10:24:44;;;;;;;4.18;2.10;;;;;;;37.66;nan;100858.59;5032163;28;20049;-67
2022/08/29 10:27:24;;;;;;;4.10;1.83;;;;;;;38.06;nan;100863.09;5032951;28;20065;-66
2022/08/29 10:29:52;;;;;;;3.47;1.73;;;;;;;38.00;nan;100859.72;5034886;28;20033;-65
2022/08/29 10:32:42;;;;;;;3.28;1.58;;;;;;;38.31;nan;100861.41;5033983;28;20038;-65
2022/08/29 10:35:29;;;;;;;;;;;;;;;39.17;nan;100856.53;5035781;28;20044;-65
2022/08/29 10:38:25;;;;;;;4.13;1.98;;;;;;;40.02;nan;100852.47;5035778;28;19921;-65
2022/08/29 10:41:00;;;;;;;;;;;;;;;40.24;nan;100842.94;5035653;28;20033;-65
2022/08/29 10:43:46;;;;;;;3.67;1.90;;;;;;;40.44;nan;100855.09;5032293;28;20305;-66
2022/08/29 10:46:14;;;;;;;4.70;1.67;;;;;;;40.29;nan;100839.97;5027765;28;20450;-66
2022/08/29 10:49:18;;;;;;;3.35;1.63;;;;;;;40.33;nan;100836.16;5046853;28;20064;-66
2022/08/29 10:51:59;;;;;;;3.80;1.70;;;;;;;40.84;nan;100843.31;5031375;28;20477;-65
2022/08/29 10:54:39;;;;;;;4.40;1.55;;;;;;;40.18;nan;100839.56;5016028;28;20045;-66
2022/08/29 10:57:07;;;;;;;4.97;1.92;;;;;;;40.03;nan;100830.00;5024205;28;20041;-66
2022/08/29 10:59:56;;;;;;;4.75;2.00;;;;;;;40.62;nan;100839.00;5027879;28;20029;-65
2022/08/29 11:02:33;;;;;;;2.88;1.50;;;;;;;40.70;nan;100832.56;5021425;28;20051;-66
2022/08/29 11:05:05;;;;;;;4.63;1.83;;;;;;;41.44;nan;100832.38;5030210;28;20037;-66
2022/08/29 11:07:38;;;;;;;3.15;1.60;;;;;;;42.07;nan;100834.47;5030410;28;20497;-66
2022/08/29 11:10:16;;;;;;;2.90;1.50;;;;;;;42.49;nan;100825.56;5029644;28;20404;-66
2022/08/29 11:13:09;;;;;;;2.75;1.80;;;;;;;42.55;nan;100815.75;5030188;28;20040;-65
2022/08/29 11:15:42;;;;;;;2.53;1.27;;;;;;;42.23;nan;100818.59;5027658;28;20243;-66
2022/08/29 11:18:28;;;;;;;4.43;1.75;;;;;;;41.80;nan;100814.72;5028061;28;20041;-67
2022/08/29 11:21:02;;;;;;;3.10;1.75;;;;;;;42.16;nan;100810.88;5029365;28;20033;-66
2022/08/29 11:23:37;;;;;;;4.18;1.90;;;;;;;42.05;nan;100806.22;5010722;28;20045;-67
2022/08/29 11:26:27;;;;;;;3.70;1.88;;;;;;;41.97;nan;100794.94;5033857;28;20048;-67
2022/08/29 11:29:18;;;;;;;2.88;1.85;;;;;;;41.64;nan;100797.22;5010350;28;20225;-65
2022/08/29 11:31:43;;;;;;;;;;;;;;;41.68;nan;100798.94;5033333;28;20041;-65
2022/08/29 11:34:40;;;;;;;3.73;1.90;;;;;;;42.12;nan;100790.56;5033685;28;20321;-66
2022/08/29 11:37:22;;;;;;;4.65;2.33;;;;;;;42.38;nan;100790.00;5023839;28;20531;-65
2022/08/29 11:39:56;;;;;;;5.20;2.10;;;;;;;42.48;nan;100791.41;5031732;28;20048;-65
2022/08/29 11:42:27;;;;;;;3.15;1.50;;;;;;;42.64;nan;100777.44;5036544;28;20053;-65
2022/08/29 11:44:54;;;;;;;;;;;;;;;43.49;nan;100785.94;5033877;28;20391;-65
2022/08/29 11:47:45;;;;;;;2.60;1.60;;;;;;;44.79;nan;100783.22;5032182;28;19925;-67
2022/08/29 11:50:13;;;;;;;;;;;;;;;44.92;nan;100779.81;5029863;28;20093;-66
2022/08/29 11:52:47;;;;;;;;;;;;;;;45.15;nan;100770.53;5025807;28;19929;-66
2022/08/29 11:55:25;;;;;;;2.05;1.25;;;;;;;44.55;nan;100774.13;5032088;28;25060;-66